sensor_id;sensor_type;location;lat;lon;timestamp;P1;durP1;ratioP1;P2;durP2;ratioP2
52650;SDS011;38537;47.226;39.702;2023-03-20T00:02:19;33.28;;;20.60;;
52650;SDS011;38537;47.226;39.702;2023-03-20T00:04:48;32.50;;;19.80;;
52650;SDS011;38537;47.226;39.702;2023-03-20T00:07:15;42.05;;;21.85;;
52650;SDS011;38537;47.226;39.702;2023-03-20T00:09:43;40.30;;;20.50;;
52650;SDS011;38537;47.226;39.702;2023-03-20T00:12:12;38.45;;;20.05;;
52650;SDS011;38537;47.226;39.702;2023-03-20T00:14:43;35.88;;;20.65;;
52650;SDS011;38537;47.226;39.702;2023-03-20T00:17:11;34.72;;;19.30;;
52650;SDS011;38537;47.226;39.702;2023-03-20T00:19:44;27.40;;;18.75;;
52650;SDS011;38537;47.226;39.702;2023-03-20T00:22:11;34.40;;;19.05;;
52650;SDS011;38537;47.226;39.702;2023-03-20T00:24:39;43.05;;;19.88;;
52650;SDS011;38537;47.226;39.702;2023-03-20T00:27:08;42.03;;;19.75;;
52650;SDS011;38537;47.226;39.702;2023-03-20T00:29:39;32.53;;;19.13;;
52650;SDS011;38537;47.226;39.702;2023-03-20T00:32:11;31.45;;;18.83;;
52650;SDS011;38537;47.226;39.702;2023-03-20T00:34:39;35.50;;;18.40;;
52650;SDS011;38537;47.226;39.702;2023-03-20T00:37:07;33.78;;;17.90;;
52650;SDS011;38537;47.226;39.702;2023-03-20T00:39:37;29.63;;;18.00;;
52650;SDS011;38537;47.226;39.702;2023-03-20T00:42:05;28.58;;;17.30;;
52650;SDS011;38537;47.226;39.702;2023-03-20T00:44:39;26.00;;;16.92;;
52650;SDS011;38537;47.226;39.702;2023-03-20T00:47:22;25.52;;;16.83;;
52650;SDS011;38537;47.226;39.702;2023-03-20T00:49:51;25.08;;;16.77;;
52650;SDS011;38537;47.226;39.702;2023-03-20T00:52:21;28.15;;;16.15;;
52650;SDS011;38537;47.226;39.702;2023-03-20T00:54:50;24.42;;;16.00;;
52650;SDS011;38537;47.226;39.702;2023-03-20T00:57:21;34.90;;;16.48;;
52650;SDS011;38537;47.226;39.702;2023-03-20T01:02:25;26.85;;;16.35;;
52650;SDS011;38537;47.226;39.702;2023-03-20T01:04:55;18.98;;;14.90;;
52650;SDS011;38537;47.226;39.702;2023-03-20T01:07:24;26.70;;;14.82;;
52650;SDS011;38537;47.226;39.702;2023-03-20T01:09:52;24.35;;;13.82;;
52650;SDS011;38537;47.226;39.702;2023-03-20T01:12:19;24.10;;;14.48;;
52650;SDS011;38537;47.226;39.702;2023-03-20T01:14:54;24.95;;;14.75;;
52650;SDS011;38537;47.226;39.702;2023-03-20T01:17:24;22.75;;;13.90;;
52650;SDS011;38537;47.226;39.702;2023-03-20T01:19:53;22.90;;;14.55;;
52650;SDS011;38537;47.226;39.702;2023-03-20T01:22:20;27.98;;;14.80;;
52650;SDS011;38537;47.226;39.702;2023-03-20T01:24:48;22.85;;;13.43;;
52650;SDS011;38537;47.226;39.702;2023-03-20T01:27:17;20.23;;;12.98;;
52650;SDS011;38537;47.226;39.702;2023-03-20T01:29:46;24.63;;;13.38;;
52650;SDS011;38537;47.226;39.702;2023-03-20T01:32:14;23.42;;;14.43;;
52650;SDS011;38537;47.226;39.702;2023-03-20T01:34:50;22.65;;;13.32;;
52650;SDS011;38537;47.226;39.702;2023-03-20T01:37:26;18.73;;;12.60;;
52650;SDS011;38537;47.226;39.702;2023-03-20T01:39:59;17.98;;;13.57;;
52650;SDS011;38537;47.226;39.702;2023-03-20T01:42:28;23.05;;;13.18;;
52650;SDS011;38537;47.226;39.702;2023-03-20T01:44:56;23.73;;;13.13;;
52650;SDS011;38537;47.226;39.702;2023-03-20T01:47:25;22.13;;;13.50;;
52650;SDS011;38537;47.226;39.702;2023-03-20T01:52:45;19.38;;;13.20;;
52650;SDS011;38537;47.226;39.702;2023-03-20T01:55:16;21.48;;;13.48;;
52650;SDS011;38537;47.226;39.702;2023-03-20T01:57:49;19.85;;;13.30;;
52650;SDS011;38537;47.226;39.702;2023-03-20T02:00:19;19.45;;;13.18;;
52650;SDS011;38537;47.226;39.702;2023-03-20T02:02:47;21.60;;;13.02;;
52650;SDS011;38537;47.226;39.702;2023-03-20T02:05:34;19.40;;;13.15;;
52650;SDS011;38537;47.226;39.702;2023-03-20T02:08:18;21.00;;;12.88;;
52650;SDS011;38537;47.226;39.702;2023-03-20T02:11:01;21.85;;;12.85;;
52650;SDS011;38537;47.226;39.702;2023-03-20T02:13:31;19.27;;;13.02;;
52650;SDS011;38537;47.226;39.702;2023-03-20T02:18:55;18.52;;;13.20;;
52650;SDS011;38537;47.226;39.702;2023-03-20T02:32:34;22.10;;;13.60;;
52650;SDS011;38537;47.226;39.702;2023-03-20T02:41:11;26.58;;;13.38;;
52650;SDS011;38537;47.226;39.702;2023-03-20T02:54:40;23.73;;;13.40;;
52650;SDS011;38537;47.226;39.702;2023-03-20T03:00:11;26.13;;;13.70;;
52650;SDS011;38537;47.226;39.702;2023-03-20T03:02:52;27.50;;;13.85;;
52650;SDS011;38537;47.226;39.702;2023-03-20T03:05:35;26.10;;;13.80;;
52650;SDS011;38537;47.226;39.702;2023-03-20T03:08:07;23.60;;;13.77;;
52650;SDS011;38537;47.226;39.702;2023-03-20T03:10:44;24.38;;;13.75;;
52650;SDS011;38537;47.226;39.702;2023-03-20T03:13:17;28.08;;;14.25;;
52650;SDS011;38537;47.226;39.702;2023-03-20T03:15:50;26.13;;;14.00;;
52650;SDS011;38537;47.226;39.702;2023-03-20T03:18:22;23.17;;;13.52;;
52650;SDS011;38537;47.226;39.702;2023-03-20T03:20:54;24.80;;;13.63;;
52650;SDS011;38537;47.226;39.702;2023-03-20T03:23:31;25.45;;;13.52;;
52650;SDS011;38537;47.226;39.702;2023-03-20T03:26:03;27.38;;;14.15;;
52650;SDS011;38537;47.226;39.702;2023-03-20T03:28:39;24.67;;;13.25;;
52650;SDS011;38537;47.226;39.702;2023-03-20T03:31:11;24.85;;;14.63;;
52650;SDS011;38537;47.226;39.702;2023-03-20T03:33:45;23.83;;;13.60;;
52650;SDS011;38537;47.226;39.702;2023-03-20T03:36:30;24.73;;;13.45;;
52650;SDS011;38537;47.226;39.702;2023-03-20T03:47:44;24.08;;;12.68;;
52650;SDS011;38537;47.226;39.702;2023-03-20T03:53:29;25.55;;;13.40;;
52650;SDS011;38537;47.226;39.702;2023-03-20T03:56:02;24.85;;;13.68;;
52650;SDS011;38537;47.226;39.702;2023-03-20T03:58:36;26.40;;;13.63;;
52650;SDS011;38537;47.226;39.702;2023-03-20T04:01:09;30.73;;;13.50;;
52650;SDS011;38537;47.226;39.702;2023-03-20T04:03:42;25.23;;;13.07;;
52650;SDS011;38537;47.226;39.702;2023-03-20T04:06:15;22.20;;;14.02;;
52650;SDS011;38537;47.226;39.702;2023-03-20T04:08:44;27.13;;;14.05;;
52650;SDS011;38537;47.226;39.702;2023-03-20T04:11:16;26.83;;;13.43;;
52650;SDS011;38537;47.226;39.702;2023-03-20T04:13:47;21.80;;;13.32;;
52650;SDS011;38537;47.226;39.702;2023-03-20T04:16:17;23.05;;;13.60;;
52650;SDS011;38537;47.226;39.702;2023-03-20T04:18:45;25.42;;;13.38;;
52650;SDS011;38537;47.226;39.702;2023-03-20T04:21:14;24.30;;;13.68;;
52650;SDS011;38537;47.226;39.702;2023-03-20T04:23:43;27.38;;;14.27;;
52650;SDS011;38537;47.226;39.702;2023-03-20T04:26:11;23.05;;;14.02;;
52650;SDS011;38537;47.226;39.702;2023-03-20T04:28:39;26.70;;;14.50;;
52650;SDS011;38537;47.226;39.702;2023-03-20T04:31:34;22.25;;;13.60;;
52650;SDS011;38537;47.226;39.702;2023-03-20T04:34:10;25.58;;;14.43;;
52650;SDS011;38537;47.226;39.702;2023-03-20T04:37:02;23.08;;;13.43;;
52650;SDS011;38537;47.226;39.702;2023-03-20T04:39:42;23.08;;;14.55;;
52650;SDS011;38537;47.226;39.702;2023-03-20T04:42:10;28.00;;;15.55;;
52650;SDS011;38537;47.226;39.702;2023-03-20T04:44:37;24.05;;;14.35;;
52650;SDS011;38537;47.226;39.702;2023-03-20T04:47:05;27.65;;;14.55;;
52650;SDS011;38537;47.226;39.702;2023-03-20T04:49:39;26.05;;;15.02;;
52650;SDS011;38537;47.226;39.702;2023-03-20T04:52:07;20.13;;;14.10;;
52650;SDS011;38537;47.226;39.702;2023-03-20T04:54:38;27.05;;;14.73;;
52650;SDS011;38537;47.226;39.702;2023-03-20T04:57:06;25.15;;;14.35;;
52650;SDS011;38537;47.226;39.702;2023-03-20T04:59:35;23.40;;;13.70;;
52650;SDS011;38537;47.226;39.702;2023-03-20T05:02:02;24.30;;;14.10;;
52650;SDS011;38537;47.226;39.702;2023-03-20T05:04:30;22.65;;;14.63;;
52650;SDS011;38537;47.226;39.702;2023-03-20T05:06:58;23.08;;;14.82;;
52650;SDS011;38537;47.226;39.702;2023-03-20T05:09:33;21.77;;;14.77;;
52650;SDS011;38537;47.226;39.702;2023-03-20T05:12:03;26.48;;;14.98;;
52650;SDS011;38537;47.226;39.702;2023-03-20T05:14:49;25.38;;;15.10;;
52650;SDS011;38537;47.226;39.702;2023-03-20T05:17:35;26.05;;;16.08;;
52650;SDS011;38537;47.226;39.702;2023-03-20T05:20:14;30.98;;;15.98;;
52650;SDS011;38537;47.226;39.702;2023-03-20T05:23:02;27.88;;;15.45;;
52650;SDS011;38537;47.226;39.702;2023-03-20T05:25:58;27.42;;;15.63;;
52650;SDS011;38537;47.226;39.702;2023-03-20T05:28:49;25.25;;;15.00;;
52650;SDS011;38537;47.226;39.702;2023-03-20T05:31:41;27.00;;;15.60;;
52650;SDS011;38537;47.226;39.702;2023-03-20T05:34:17;25.05;;;14.50;;
52650;SDS011;38537;47.226;39.702;2023-03-20T05:37:01;30.77;;;14.93;;
52650;SDS011;38537;47.226;39.702;2023-03-20T05:39:55;25.20;;;15.57;;
52650;SDS011;38537;47.226;39.702;2023-03-20T05:42:40;30.40;;;15.45;;
52650;SDS011;38537;47.226;39.702;2023-03-20T05:45:41;28.73;;;15.02;;
52650;SDS011;38537;47.226;39.702;2023-03-20T05:48:28;27.65;;;15.57;;
52650;SDS011;38537;47.226;39.702;2023-03-20T05:51:14;23.92;;;15.23;;
52650;SDS011;38537;47.226;39.702;2023-03-20T05:54:04;25.02;;;16.00;;
52650;SDS011;38537;47.226;39.702;2023-03-20T05:56:50;24.00;;;15.20;;
52650;SDS011;38537;47.226;39.702;2023-03-20T05:59:41;29.90;;;15.77;;
52650;SDS011;38537;47.226;39.702;2023-03-20T06:02:36;29.83;;;15.88;;
52650;SDS011;38537;47.226;39.702;2023-03-20T06:05:24;26.52;;;15.82;;
52650;SDS011;38537;47.226;39.702;2023-03-20T06:07:52;26.40;;;15.65;;
52650;SDS011;38537;47.226;39.702;2023-03-20T06:10:19;24.88;;;15.15;;
52650;SDS011;38537;47.226;39.702;2023-03-20T06:12:48;29.90;;;15.35;;
52650;SDS011;38537;47.226;39.702;2023-03-20T06:15:18;26.85;;;14.95;;
52650;SDS011;38537;47.226;39.702;2023-03-20T06:17:53;21.15;;;14.48;;
52650;SDS011;38537;47.226;39.702;2023-03-20T06:20:21;25.38;;;14.63;;
52650;SDS011;38537;47.226;39.702;2023-03-20T06:22:49;27.08;;;14.68;;
52650;SDS011;38537;47.226;39.702;2023-03-20T06:25:18;28.83;;;14.35;;
52650;SDS011;38537;47.226;39.702;2023-03-20T06:27:47;25.55;;;14.65;;
52650;SDS011;38537;47.226;39.702;2023-03-20T06:30:15;24.98;;;15.35;;
52650;SDS011;38537;47.226;39.702;2023-03-20T06:32:44;25.88;;;15.35;;
52650;SDS011;38537;47.226;39.702;2023-03-20T06:35:13;30.48;;;16.05;;
52650;SDS011;38537;47.226;39.702;2023-03-20T06:37:44;24.15;;;15.10;;
52650;SDS011;38537;47.226;39.702;2023-03-20T06:40:17;29.42;;;16.60;;
52650;SDS011;38537;47.226;39.702;2023-03-20T06:42:46;27.50;;;16.25;;
52650;SDS011;38537;47.226;39.702;2023-03-20T06:45:14;24.65;;;16.00;;
52650;SDS011;38537;47.226;39.702;2023-03-20T06:47:55;29.25;;;15.90;;
52650;SDS011;38537;47.226;39.702;2023-03-20T06:50:22;26.02;;;15.40;;
52650;SDS011;38537;47.226;39.702;2023-03-20T06:52:50;29.63;;;16.05;;
52650;SDS011;38537;47.226;39.702;2023-03-20T06:55:38;28.27;;;16.50;;
52650;SDS011;38537;47.226;39.702;2023-03-20T06:58:05;33.17;;;17.23;;
52650;SDS011;38537;47.226;39.702;2023-03-20T07:00:34;35.53;;;16.50;;
52650;SDS011;38537;47.226;39.702;2023-03-20T07:03:03;33.13;;;16.00;;
52650;SDS011;38537;47.226;39.702;2023-03-20T07:05:31;29.45;;;17.20;;
52650;SDS011;38537;47.226;39.702;2023-03-20T07:08:00;31.23;;;16.70;;
52650;SDS011;38537;47.226;39.702;2023-03-20T07:10:27;32.55;;;16.95;;
52650;SDS011;38537;47.226;39.702;2023-03-20T07:12:55;28.52;;;16.48;;
52650;SDS011;38537;47.226;39.702;2023-03-20T07:15:23;29.52;;;16.27;;
52650;SDS011;38537;47.226;39.702;2023-03-20T07:17:50;26.65;;;15.90;;
52650;SDS011;38537;47.226;39.702;2023-03-20T07:20:19;31.02;;;16.48;;
52650;SDS011;38537;47.226;39.702;2023-03-20T07:22:46;31.20;;;16.80;;
52650;SDS011;38537;47.226;39.702;2023-03-20T07:25:23;29.25;;;16.15;;
52650;SDS011;38537;47.226;39.702;2023-03-20T07:28:07;31.23;;;16.90;;
52650;SDS011;38537;47.226;39.702;2023-03-20T07:30:37;30.60;;;17.23;;
52650;SDS011;38537;47.226;39.702;2023-03-20T07:33:05;32.92;;;16.63;;
52650;SDS011;38537;47.226;39.702;2023-03-20T07:35:33;30.50;;;16.77;;
52650;SDS011;38537;47.226;39.702;2023-03-20T07:38:02;32.17;;;17.33;;
52650;SDS011;38537;47.226;39.702;2023-03-20T07:40:30;34.35;;;16.52;;
52650;SDS011;38537;47.226;39.702;2023-03-20T07:43:02;33.67;;;16.67;;
52650;SDS011;38537;47.226;39.702;2023-03-20T07:46:08;38.47;;;16.88;;
52650;SDS011;38537;47.226;39.702;2023-03-20T07:48:37;36.30;;;18.38;;
52650;SDS011;38537;47.226;39.702;2023-03-20T07:51:04;42.92;;;18.33;;
52650;SDS011;38537;47.226;39.702;2023-03-20T07:53:32;39.00;;;19.05;;
52650;SDS011;38537;47.226;39.702;2023-03-20T07:55:59;39.50;;;20.35;;
52650;SDS011;38537;47.226;39.702;2023-03-20T07:58:29;36.70;;;20.25;;
52650;SDS011;38537;47.226;39.702;2023-03-20T08:01:00;36.65;;;19.70;;
52650;SDS011;38537;47.226;39.702;2023-03-20T08:03:28;41.10;;;20.42;;
52650;SDS011;38537;47.226;39.702;2023-03-20T08:05:56;39.00;;;20.17;;
52650;SDS011;38537;47.226;39.702;2023-03-20T08:08:24;37.67;;;20.38;;
52650;SDS011;38537;47.226;39.702;2023-03-20T08:10:51;40.83;;;19.60;;
52650;SDS011;38537;47.226;39.702;2023-03-20T08:13:18;37.95;;;19.15;;
52650;SDS011;38537;47.226;39.702;2023-03-20T08:15:45;40.80;;;18.20;;
52650;SDS011;38537;47.226;39.702;2023-03-20T08:18:13;46.80;;;18.30;;
52650;SDS011;38537;47.226;39.702;2023-03-20T08:20:41;41.70;;;17.15;;
52650;SDS011;38537;47.226;39.702;2023-03-20T08:23:08;41.22;;;16.70;;
52650;SDS011;38537;47.226;39.702;2023-03-20T08:25:35;42.85;;;17.60;;
52650;SDS011;38537;47.226;39.702;2023-03-20T08:28:03;39.03;;;16.85;;
52650;SDS011;38537;47.226;39.702;2023-03-20T08:30:31;40.13;;;16.58;;
52650;SDS011;38537;47.226;39.702;2023-03-20T08:32:58;36.88;;;17.23;;
52650;SDS011;38537;47.226;39.702;2023-03-20T08:35:25;40.53;;;17.55;;
52650;SDS011;38537;47.226;39.702;2023-03-20T08:37:59;35.58;;;16.77;;
52650;SDS011;38537;47.226;39.702;2023-03-20T08:40:27;42.20;;;16.55;;
52650;SDS011;38537;47.226;39.702;2023-03-20T08:42:54;37.15;;;16.95;;
52650;SDS011;38537;47.226;39.702;2023-03-20T08:45:22;37.33;;;17.45;;
52650;SDS011;38537;47.226;39.702;2023-03-20T08:47:52;39.42;;;16.23;;
52650;SDS011;38537;47.226;39.702;2023-03-20T08:50:20;42.38;;;16.98;;
52650;SDS011;38537;47.226;39.702;2023-03-20T08:52:48;38.95;;;16.42;;
52650;SDS011;38537;47.226;39.702;2023-03-20T08:55:15;39.95;;;16.35;;
52650;SDS011;38537;47.226;39.702;2023-03-20T08:57:42;44.78;;;16.65;;
52650;SDS011;38537;47.226;39.702;2023-03-20T09:00:10;31.08;;;15.35;;
52650;SDS011;38537;47.226;39.702;2023-03-20T09:02:40;34.20;;;15.80;;
52650;SDS011;38537;47.226;39.702;2023-03-20T09:05:09;33.53;;;15.05;;
52650;SDS011;38537;47.226;39.702;2023-03-20T09:07:37;35.67;;;15.98;;
52650;SDS011;38537;47.226;39.702;2023-03-20T09:10:04;34.22;;;15.63;;
52650;SDS011;38537;47.226;39.702;2023-03-20T09:12:32;39.50;;;16.38;;
52650;SDS011;38537;47.226;39.702;2023-03-20T09:14:59;33.30;;;15.73;;
52650;SDS011;38537;47.226;39.702;2023-03-20T09:17:28;46.08;;;17.00;;
52650;SDS011;38537;47.226;39.702;2023-03-20T09:19:57;40.90;;;16.02;;
52650;SDS011;38537;47.226;39.702;2023-03-20T09:22:24;30.23;;;16.05;;
52650;SDS011;38537;47.226;39.702;2023-03-20T09:24:51;36.17;;;16.23;;
52650;SDS011;38537;47.226;39.702;2023-03-20T09:27:19;33.97;;;16.27;;
52650;SDS011;38537;47.226;39.702;2023-03-20T09:29:47;40.30;;;16.67;;
52650;SDS011;38537;47.226;39.702;2023-03-20T09:32:14;40.08;;;17.38;;
52650;SDS011;38537;47.226;39.702;2023-03-20T09:34:41;37.58;;;16.92;;
52650;SDS011;38537;47.226;39.702;2023-03-20T09:37:09;43.13;;;17.50;;
52650;SDS011;38537;47.226;39.702;2023-03-20T09:39:36;39.72;;;16.58;;
52650;SDS011;38537;47.226;39.702;2023-03-20T09:42:07;39.28;;;16.77;;
52650;SDS011;38537;47.226;39.702;2023-03-20T09:44:49;43.22;;;17.35;;
52650;SDS011;38537;47.226;39.702;2023-03-20T09:50:10;46.20;;;18.25;;
52650;SDS011;38537;47.226;39.702;2023-03-20T09:55:26;50.95;;;19.10;;
52650;SDS011;38537;47.226;39.702;2023-03-20T09:58:11;63.28;;;19.92;;
52650;SDS011;38537;47.226;39.702;2023-03-20T10:00:44;59.37;;;20.23;;
52650;SDS011;38537;47.226;39.702;2023-03-20T10:03:30;53.08;;;19.38;;
52650;SDS011;38537;47.226;39.702;2023-03-20T10:06:06;44.70;;;17.65;;
52650;SDS011;38537;47.226;39.702;2023-03-20T10:08:39;45.72;;;18.00;;
52650;SDS011;38537;47.226;39.702;2023-03-20T10:22:52;45.03;;;23.88;;
52650;SDS011;38537;47.226;39.702;2023-03-20T10:25:34;48.17;;;28.23;;
52650;SDS011;38537;47.226;39.702;2023-03-20T10:28:10;57.17;;;29.98;;
52650;SDS011;38537;47.226;39.702;2023-03-20T10:33:36;53.00;;;22.83;;
52650;SDS011;38537;47.226;39.702;2023-03-20T10:42:10;44.70;;;19.15;;
52650;SDS011;38537;47.226;39.702;2023-03-20T10:44:46;40.97;;;17.50;;
52650;SDS011;38537;47.226;39.702;2023-03-20T10:47:19;39.63;;;16.70;;
52650;SDS011;38537;47.226;39.702;2023-03-20T10:49:53;43.28;;;17.27;;
52650;SDS011;38537;47.226;39.702;2023-03-20T10:52:33;41.08;;;16.48;;
52650;SDS011;38537;47.226;39.702;2023-03-20T10:55:09;46.22;;;15.60;;
52650;SDS011;38537;47.226;39.702;2023-03-20T10:57:41;40.33;;;15.27;;
52650;SDS011;38537;47.226;39.702;2023-03-20T11:00:16;44.55;;;15.57;;
52650;SDS011;38537;47.226;39.702;2023-03-20T11:02:47;38.58;;;14.77;;
52650;SDS011;38537;47.226;39.702;2023-03-20T11:05:22;34.13;;;15.30;;
52650;SDS011;38537;47.226;39.702;2023-03-20T11:10:39;33.38;;;14.40;;
52650;SDS011;38537;47.226;39.702;2023-03-20T11:18:48;35.95;;;13.25;;
52650;SDS011;38537;47.226;39.702;2023-03-20T11:21:25;28.98;;;11.93;;
52650;SDS011;38537;47.226;39.702;2023-03-20T11:23:54;30.77;;;12.85;;
52650;SDS011;38537;47.226;39.702;2023-03-20T11:26:29;35.25;;;12.93;;
52650;SDS011;38537;47.226;39.702;2023-03-20T11:29:01;39.92;;;14.20;;
52650;SDS011;38537;47.226;39.702;2023-03-20T11:31:34;38.38;;;13.00;;
52650;SDS011;38537;47.226;39.702;2023-03-20T11:34:18;30.13;;;12.55;;
52650;SDS011;38537;47.226;39.702;2023-03-20T11:36:54;29.88;;;13.23;;
52650;SDS011;38537;47.226;39.702;2023-03-20T11:39:35;27.98;;;13.10;;
52650;SDS011;38537;47.226;39.702;2023-03-20T11:42:20;30.48;;;12.95;;
52650;SDS011;38537;47.226;39.702;2023-03-20T11:44:57;28.42;;;13.25;;
52650;SDS011;38537;47.226;39.702;2023-03-20T11:47:30;31.95;;;14.05;;
52650;SDS011;38537;47.226;39.702;2023-03-20T11:50:03;29.85;;;13.65;;
52650;SDS011;38537;47.226;39.702;2023-03-20T11:52:34;30.33;;;13.07;;
52650;SDS011;38537;47.226;39.702;2023-03-20T11:55:06;28.92;;;12.35;;
52650;SDS011;38537;47.226;39.702;2023-03-20T11:57:49;31.88;;;12.63;;
52650;SDS011;38537;47.226;39.702;2023-03-20T12:00:20;32.22;;;12.07;;
52650;SDS011;38537;47.226;39.702;2023-03-20T12:02:50;30.05;;;12.75;;
52650;SDS011;38537;47.226;39.702;2023-03-20T12:05:33;37.90;;;13.82;;
52650;SDS011;38537;47.226;39.702;2023-03-20T12:08:04;34.65;;;14.43;;
52650;SDS011;38537;47.226;39.702;2023-03-20T12:10:40;34.33;;;13.68;;
52650;SDS011;38537;47.226;39.702;2023-03-20T12:15:54;38.45;;;14.07;;
52650;SDS011;38537;47.226;39.702;2023-03-20T12:18:44;26.55;;;9.07;;
52650;SDS011;38537;47.226;39.702;2023-03-20T12:24:52;20.10;;;8.02;;
52650;SDS011;38537;47.226;39.702;2023-03-20T12:27:45;27.88;;;8.23;;
52650;SDS011;38537;47.226;39.702;2023-03-20T12:30:21;37.45;;;8.48;;
52650;SDS011;38537;47.226;39.702;2023-03-20T12:33:33;29.38;;;7.40;;
52650;SDS011;38537;47.226;39.702;2023-03-20T12:36:24;23.75;;;7.90;;
52650;SDS011;38537;47.226;39.702;2023-03-20T12:39:03;24.98;;;7.43;;
52650;SDS011;38537;47.226;39.702;2023-03-20T12:41:38;25.27;;;7.35;;
52650;SDS011;38537;47.226;39.702;2023-03-20T12:44:17;26.75;;;8.23;;
52650;SDS011;38537;47.226;39.702;2023-03-20T12:46:55;28.23;;;8.35;;
52650;SDS011;38537;47.226;39.702;2023-03-20T12:52:36;30.95;;;7.85;;
52650;SDS011;38537;47.226;39.702;2023-03-20T12:55:20;29.88;;;8.43;;
52650;SDS011;38537;47.226;39.702;2023-03-20T13:11:41;26.17;;;7.85;;
52650;SDS011;38537;47.226;39.702;2023-03-20T13:25:57;30.05;;;6.53;;
52650;SDS011;38537;47.226;39.702;2023-03-20T13:34:24;24.13;;;5.97;;
52650;SDS011;38537;47.226;39.702;2023-03-20T13:37:04;27.20;;;6.25;;
52650;SDS011;38537;47.226;39.702;2023-03-20T13:42:56;22.77;;;6.20;;
52650;SDS011;38537;47.226;39.702;2023-03-20T14:05:19;19.60;;;4.73;;
52650;SDS011;38537;47.226;39.702;2023-03-20T14:07:53;17.02;;;4.38;;
52650;SDS011;38537;47.226;39.702;2023-03-20T14:13:32;15.95;;;4.25;;
52650;SDS011;38537;47.226;39.702;2023-03-20T14:15:55;16.90;;;4.65;;
52650;SDS011;38537;47.226;39.702;2023-03-20T14:18:24;10.98;;;4.05;;
52650;SDS011;38537;47.226;39.702;2023-03-20T14:20:59;14.77;;;4.65;;
52650;SDS011;38537;47.226;39.702;2023-03-20T14:28:59;14.85;;;4.75;;
52650;SDS011;38537;47.226;39.702;2023-03-20T14:31:39;18.88;;;4.50;;
52650;SDS011;38537;47.226;39.702;2023-03-20T14:36:57;16.10;;;4.80;;
52650;SDS011;38537;47.226;39.702;2023-03-20T14:53:28;19.75;;;5.35;;
52650;SDS011;38537;47.226;39.702;2023-03-20T14:56:03;19.42;;;6.03;;
52650;SDS011;38537;47.226;39.702;2023-03-20T15:03:49;19.00;;;6.60;;
52650;SDS011;38537;47.226;39.702;2023-03-20T15:06:20;42.50;;;6.78;;
52650;SDS011;38537;47.226;39.702;2023-03-20T15:08:52;19.33;;;6.38;;
52650;SDS011;38537;47.226;39.702;2023-03-20T15:11:32;19.52;;;6.72;;
52650;SDS011;38537;47.226;39.702;2023-03-20T15:14:01;20.55;;;6.70;;
52650;SDS011;38537;47.226;39.702;2023-03-20T15:16:33;23.63;;;6.95;;
52650;SDS011;38537;47.226;39.702;2023-03-20T15:19:04;22.20;;;8.25;;
52650;SDS011;38537;47.226;39.702;2023-03-20T15:21:43;37.42;;;11.93;;
52650;SDS011;38537;47.226;39.702;2023-03-20T15:24:19;35.90;;;12.23;;
52650;SDS011;38537;47.226;39.702;2023-03-20T15:29:16;22.77;;;7.88;;
52650;SDS011;38537;47.226;39.702;2023-03-20T15:31:50;26.42;;;7.80;;
52650;SDS011;38537;47.226;39.702;2023-03-20T15:34:39;28.08;;;8.73;;
52650;SDS011;38537;47.226;39.702;2023-03-20T15:37:11;29.30;;;8.98;;
52650;SDS011;38537;47.226;39.702;2023-03-20T15:39:43;25.20;;;9.10;;
52650;SDS011;38537;47.226;39.702;2023-03-20T15:42:16;29.10;;;9.55;;
52650;SDS011;38537;47.226;39.702;2023-03-20T15:44:48;23.45;;;8.50;;
52650;SDS011;38537;47.226;39.702;2023-03-20T15:47:19;25.20;;;9.38;;
52650;SDS011;38537;47.226;39.702;2023-03-20T15:49:55;23.50;;;9.25;;
52650;SDS011;38537;47.226;39.702;2023-03-20T15:52:33;24.35;;;9.50;;
52650;SDS011;38537;47.226;39.702;2023-03-20T15:55:16;30.42;;;9.35;;
52650;SDS011;38537;47.226;39.702;2023-03-20T15:57:46;21.08;;;9.57;;
52650;SDS011;38537;47.226;39.702;2023-03-20T16:00:18;27.58;;;9.52;;
52650;SDS011;38537;47.226;39.702;2023-03-20T16:02:52;30.52;;;9.98;;
52650;SDS011;38537;47.226;39.702;2023-03-20T16:05:20;26.00;;;10.60;;
52650;SDS011;38537;47.226;39.702;2023-03-20T16:07:52;25.77;;;10.18;;
52650;SDS011;38537;47.226;39.702;2023-03-20T16:10:29;30.10;;;10.00;;
52650;SDS011;38537;47.226;39.702;2023-03-20T16:13:05;31.30;;;10.77;;
52650;SDS011;38537;47.226;39.702;2023-03-20T16:15:33;27.60;;;10.52;;
52650;SDS011;38537;47.226;39.702;2023-03-20T16:18:01;24.73;;;10.90;;
52650;SDS011;38537;47.226;39.702;2023-03-20T16:20:32;27.40;;;10.68;;
52650;SDS011;38537;47.226;39.702;2023-03-20T16:23:06;25.38;;;11.20;;
52650;SDS011;38537;47.226;39.702;2023-03-20T16:25:35;24.70;;;11.82;;
52650;SDS011;38537;47.226;39.702;2023-03-20T16:28:03;27.10;;;12.18;;
52650;SDS011;38537;47.226;39.702;2023-03-20T16:30:34;30.00;;;11.15;;
52650;SDS011;38537;47.226;39.702;2023-03-20T16:33:10;28.20;;;11.48;;
52650;SDS011;38537;47.226;39.702;2023-03-20T16:35:43;27.25;;;11.20;;
52650;SDS011;38537;47.226;39.702;2023-03-20T16:38:16;24.45;;;10.70;;
52650;SDS011;38537;47.226;39.702;2023-03-20T16:40:54;34.97;;;11.50;;
52650;SDS011;38537;47.226;39.702;2023-03-20T16:43:30;21.48;;;11.45;;
52650;SDS011;38537;47.226;39.702;2023-03-20T16:46:02;24.93;;;11.33;;
52650;SDS011;38537;47.226;39.702;2023-03-20T16:50:59;26.95;;;11.77;;
52650;SDS011;38537;47.226;39.702;2023-03-20T16:53:46;26.42;;;11.98;;
52650;SDS011;38537;47.226;39.702;2023-03-20T16:56:17;26.67;;;12.63;;
52650;SDS011;38537;47.226;39.702;2023-03-20T16:58:55;30.15;;;12.60;;
52650;SDS011;38537;47.226;39.702;2023-03-20T17:01:24;26.40;;;12.25;;
52650;SDS011;38537;47.226;39.702;2023-03-20T17:03:55;23.42;;;12.68;;
52650;SDS011;38537;47.226;39.702;2023-03-20T17:06:35;29.88;;;12.15;;
52650;SDS011;38537;47.226;39.702;2023-03-20T17:09:14;25.23;;;12.48;;
52650;SDS011;38537;47.226;39.702;2023-03-20T17:11:44;29.50;;;12.48;;
52650;SDS011;38537;47.226;39.702;2023-03-20T17:14:15;25.15;;;12.00;;
52650;SDS011;38537;47.226;39.702;2023-03-20T17:16:42;32.90;;;13.15;;
52650;SDS011;38537;47.226;39.702;2023-03-20T17:19:13;29.33;;;12.35;;
52650;SDS011;38537;47.226;39.702;2023-03-20T17:21:42;29.58;;;12.90;;
52650;SDS011;38537;47.226;39.702;2023-03-20T17:24:11;28.33;;;12.30;;
52650;SDS011;38537;47.226;39.702;2023-03-20T17:26:40;33.97;;;13.05;;
52650;SDS011;38537;47.226;39.702;2023-03-20T17:29:10;32.08;;;12.63;;
52650;SDS011;38537;47.226;39.702;2023-03-20T17:31:38;28.77;;;12.27;;
52650;SDS011;38537;47.226;39.702;2023-03-20T17:34:05;28.70;;;12.32;;
52650;SDS011;38537;47.226;39.702;2023-03-20T17:36:33;26.65;;;12.43;;
52650;SDS011;38537;47.226;39.702;2023-03-20T17:39:02;24.90;;;12.00;;
52650;SDS011;38537;47.226;39.702;2023-03-20T17:41:29;27.95;;;11.63;;
52650;SDS011;38537;47.226;39.702;2023-03-20T17:43:56;28.40;;;12.75;;
52650;SDS011;38537;47.226;39.702;2023-03-20T17:46:25;34.05;;;12.40;;
52650;SDS011;38537;47.226;39.702;2023-03-20T17:48:59;26.63;;;11.63;;
52650;SDS011;38537;47.226;39.702;2023-03-20T17:51:29;28.02;;;11.80;;